Casper, WY (82604)

6:12 AM MDT on May 23, 2015 (GMT -0600)
PV 9th hole | | Change Station
CLOSE
Current Station
Personal Weather Station
Location: Casper, WY
Elevation: 5161 ft
Nearby Weather Stations
Active Advisory: Special Statement

Elev 5161 ft 42.82 °N, 106.40 °W | Updated 14 seconds ago

Overcast
Overcast
42.8 °F
Feels Like 43 °F
N
0.0
Wind Variable Wind from SE
Gusts 0.0 mph

Today
High -- | Low -- °F
--% Chance of Precip.
Yesterday
High -- | Low -- °F
Precip. -- in
5:35 AM 8:29 PM
Waxing Crescent, 29% visible
Pressure 29.97 in
Visibility 0.2 miles
Clouds
Windchill 43 °F
Dew Point 42 °F
Humidity 98%
Rainfall 0.00 in
Snow Depth Not available.
UV 0.0 out of 12
Pollen 4.90 out of 12
Air Quality Not available.
Flu Activity Sporadic
SPECI KCPR 231203Z 00000KT M1/4SM R03/0700V1000FT FG VV001 04/04 A2997 RMK AO2 T00440039

More Conditions Fewer Conditions

Pressure 29.97 in
Visibility 0.2 miles
Clouds
Windchill 43 °F
Dew Point 42 °F
Humidity 98%
Rainfall 0.00 in
Snow Depth Not available.
UV 0.0 out of 12
Pollen 4.90 out of 12
Air Quality Not available.
Flu Activity Sporadic
SPECI KCPR 231203Z 00000KT M1/4SM R03/0700V1000FT FG VV001 04/04 A2997 RMK AO2 T00440039

More Conditions Fewer Conditions

10-Day Weather Forecast

Almanac

Astronomy

May. 23, 2015 Rise Set
Actual Time
Civil Twilight
Nautical Twilight
Astronomical Twilight
Moon
Length of Visible Light
Length of Day
Tomorrow will be .
, % of the Moon is Illuminated

Today's Extremes

State Highs State Lows

Community

WunderPhotos

Upload Photos

1,823,440 photos uploaded!

WunderBlogs® & News

Nearby

Air Quality

  Air Quality AQ Index Pollutant
Not available.

Snow Depth

Station Depth Elevation

Earthquake Activity

City Distance Mag. Time & Date
Minimum magnitude displayed is 2.5.

Coastal Water Temperatures

Place Temperature

Stations

Nearby Weather Stations

Station Location Temp. Windchill Dew Point Humidity Wind Precip. Elev Updated Type
                   
Special Statement
Statement as of 5:30 AM MDT on May 23, 2015

Areas of fog will occur across Natrona County this morning.
Visibility will be reduced to less than one half mile in places.
The fog will lift by 1000 am. Morning commuters should be prepared
for rapidly changing conditions. Use low beam headlights when
driving in fog.



530 am MDT Sat may 23 2015

Areas of fog will occur across Natrona County this morning.
Visibility will be reduced to less than one half mile in places.
The fog will lift by 1000 am. Morning commuters should be prepared
for rapidly changing conditions. Use low beam headlights when
driving in fog.